DW4542 Weather Reports


Display with metric or nautical units.
time (UTC)temp
F
wind
direction
speed
MPH
gust
MPH
rain 1hr
in
rain 24hr
in
rain mn
in
humidity
%
barometer
mb
20210916093044 71 158 0.0 0.0 0.01 1.83 0.02 100 1013.9
20210916090044 71 158 0.0 0.0 0.00 1.82 0.01 100 1013.9
20210916083047 71 158 0.0 2.0 0.01 1.82 0.01 100 1013.8
20210916080049 71 153 0.0 1.0 0.01 1.82 0.01 100 1013.9
20210916073047 71 141 0.0 1.0 0.00 1.81 0.00 100 1014.1
20210916070043 71 141 0.0 1.0 0.00 1.81 0.00 100 1014.3
20210916063044 71 177 0.0 0.0 0.00 1.81 0.00 100 1014.5
20210916060044 71 178 0.0 0.0 0.00 1.81 0.00 100 1014.8
20210916053044 71 177 0.0 0.0 0.00 1.81 0.00 100 1015.1
20210916050044 71 177 0.0 0.0 0.00 1.81 0.00 100 1015.1
20210916043046 71 178 0.0 1.0 0.00 1.81 1.81 100 1015.1
20210916040044 71 130 0.0 2.0 0.00 1.81 1.81 100 1015.1
20210916033043 71 124 0.0 1.0 0.01 1.81 1.81 100 1015.1
20210916030043 71 214 0.0 1.0 0.03 1.81 1.81 100 1015.0
20210916023044 71 215 0.0 1.0 0.04 1.80 1.80 100 1015.1
20210916020045 71 288 0.0 1.0 0.04 1.78 1.78 100 1015.1
20210916013042 71 288 0.0 0.0 0.06 1.76 1.76 100 1014.7
20210916010046 71 288 0.0 0.0 0.06 1.74 1.74 100 1014.4
20210916003044 71 288 0.0 1.0 0.03 1.70 1.70 100 1014.1
20210916000047 71 288 0.0 0.0 0.01 1.68 1.68 100 1014.0
20210915233044 71 288 0.0 0.0 0.04 1.67 1.67 100 1013.8
20210915230045 71 289 0.0 1.0 0.49 1.67 1.67 99 1013.6
20210915223042 71 288 0.0 1.0 1.06 1.63 1.63 99 1013.5
20210915220044 72 297 0.0 4.0 0.96 1.18 1.18 97 1013.7
20210915213042 73 333 0.0 1.0 0.45 0.57 0.57 99 1013.5
20210915210043 73 321 0.0 3.0 0.10 0.22 0.22 97 1013.4
20210915203041 74 255 0.0 2.0 0.00 0.12 0.12 95 1013.4
20210915200042 75 270 0.0 2.0 0.00 0.12 0.12 95 1013.8
20210915193041 75 148 1.0 2.0 0.00 0.12 0.12 96 1014.2
20210915190041 75 178 1.0 2.0 0.00 0.12 0.12 96 1014.4
20210915183042 76 157 0.0 2.0 0.02 0.12 0.12 96 1014.7
20210915180042 74 117 0.0 2.0 0.03 0.12 0.12 98 1015.1
20210915173043 74 160 0.0 2.0 0.04 0.10 0.10 98 1015.6
20210915170042 74 187 0.0 1.0 0.05 0.09 0.09 97 1015.8
20210915163042 74 89 0.0 1.0 0.05 0.06 0.06 98 1016.3
20210915160045 74 89 0.0 2.0 0.03 0.04 0.04 97 1016.3
20210915153041 74 89 0.0 3.0 0.00 0.01 0.01 94 1016.3
20210915150042 75 308 0.0 0.0 0.00 0.01 0.01 95 1015.9
20210915143043 74 307 0.0 1.0 0.00 0.01 0.01 95 1015.8
20210915140041 74 307 0.0 0.0 0.01 0.01 0.01 96 1015.7
20210915133041 73 307 0.0 0.0 0.01 0.01 0.01 95 1015.5
20210915130042 73 307 0.0 0.0 0.00 0.00 0.00 95 1015.6
20210915123042 73 307 0.0 0.0 0.00 0.00 0.00 96 1015.5
20210915120043 73 307 0.0 0.0 0.00 0.00 0.00 95 1015.2
20210915113044 72 307 0.0 0.0 0.00 0.00 0.00 96 1015.1
20210915110041 72 307 0.0 0.0 0.00 0.00 0.00 97 1014.7
20210915103044 72 307 0.0 0.0 0.00 0.00 0.00 97 1014.5
20210915100042 72 307 0.0 0.0 0.00 0.00 0.00 98 1014.3